sensor_id;sensor_type;location;lat;lon;timestamp;P1;durP1;ratioP1;P2;durP2;ratioP2
59766;SDS011;46248;58.364;25.582;2023-04-15T00:00:10;3.78;;;1.92;;
59766;SDS011;46248;58.364;25.582;2023-04-15T00:03:37;3.90;;;1.75;;
59766;SDS011;46248;58.364;25.582;2023-04-15T00:07:00;3.22;;;2.03;;
59766;SDS011;46248;58.364;25.582;2023-04-15T00:10:22;3.85;;;2.65;;
59766;SDS011;46248;58.364;25.582;2023-04-15T00:13:45;3.92;;;2.72;;
59766;SDS011;46248;58.364;25.582;2023-04-15T00:17:08;3.95;;;2.20;;
59766;SDS011;46248;58.364;25.582;2023-04-15T00:20:33;3.08;;;1.83;;
59766;SDS011;46248;58.364;25.582;2023-04-15T00:23:57;3.92;;;2.20;;
59766;SDS011;46248;58.364;25.582;2023-04-15T00:27:19;6.65;;;2.85;;
59766;SDS011;46248;58.364;25.582;2023-04-15T00:30:43;4.00;;;1.90;;
59766;SDS011;46248;58.364;25.582;2023-04-15T00:34:07;3.35;;;2.00;;
59766;SDS011;46248;58.364;25.582;2023-04-15T00:37:32;3.22;;;2.00;;
59766;SDS011;46248;58.364;25.582;2023-04-15T00:40:56;3.10;;;2.33;;
59766;SDS011;46248;58.364;25.582;2023-04-15T00:44:20;3.63;;;1.70;;
59766;SDS011;46248;58.364;25.582;2023-04-15T00:47:43;3.80;;;1.85;;
59766;SDS011;46248;58.364;25.582;2023-04-15T00:51:09;3.05;;;1.65;;
59766;SDS011;46248;58.364;25.582;2023-04-15T00:54:33;4.75;;;1.85;;
59766;SDS011;46248;58.364;25.582;2023-04-15T00:57:57;4.53;;;2.00;;
59766;SDS011;46248;58.364;25.582;2023-04-15T01:01:21;3.13;;;1.63;;
59766;SDS011;46248;58.364;25.582;2023-04-15T01:04:46;2.60;;;1.20;;
59766;SDS011;46248;58.364;25.582;2023-04-15T01:08:10;2.92;;;1.55;;
59766;SDS011;46248;58.364;25.582;2023-04-15T01:11:36;1.90;;;1.35;;
59766;SDS011;46248;58.364;25.582;2023-04-15T01:15:00;2.95;;;1.98;;
59766;SDS011;46248;58.364;25.582;2023-04-15T01:18:24;3.10;;;1.90;;
59766;SDS011;46248;58.364;25.582;2023-04-15T01:21:48;1.83;;;1.40;;
59766;SDS011;46248;58.364;25.582;2023-04-15T01:25:14;1.55;;;1.45;;
59766;SDS011;46248;58.364;25.582;2023-04-15T01:28:44;3.80;;;1.40;;
59766;SDS011;46248;58.364;25.582;2023-04-15T01:32:07;2.38;;;1.50;;
59766;SDS011;46248;58.364;25.582;2023-04-15T01:35:30;3.10;;;1.67;;
59766;SDS011;46248;58.364;25.582;2023-04-15T01:38:54;2.78;;;1.23;;
59766;SDS011;46248;58.364;25.582;2023-04-15T01:42:19;2.53;;;1.50;;
59766;SDS011;46248;58.364;25.582;2023-04-15T01:45:45;2.38;;;1.50;;
59766;SDS011;46248;58.364;25.582;2023-04-15T01:49:08;3.10;;;1.90;;
59766;SDS011;46248;58.364;25.582;2023-04-15T01:52:31;2.38;;;1.50;;
59766;SDS011;46248;58.364;25.582;2023-04-15T01:55:54;2.75;;;1.50;;
59766;SDS011;46248;58.364;25.582;2023-04-15T01:59:17;2.38;;;1.10;;
59766;SDS011;46248;58.364;25.582;2023-04-15T02:02:41;1.85;;;1.05;;
59766;SDS011;46248;58.364;25.582;2023-04-15T02:06:04;1.98;;;1.20;;
59766;SDS011;46248;58.364;25.582;2023-04-15T02:09:27;3.25;;;1.33;;
59766;SDS011;46248;58.364;25.582;2023-04-15T02:12:51;1.58;;;1.08;;
59766;SDS011;46248;58.364;25.582;2023-04-15T02:16:15;3.95;;;1.08;;
59766;SDS011;46248;58.364;25.582;2023-04-15T02:19:43;1.92;;;1.30;;
59766;SDS011;46248;58.364;25.582;2023-04-15T07:13:07;3.78;;;1.60;;
59766;SDS011;46248;58.364;25.582;2023-04-15T07:16:29;3.28;;;1.88;;
59766;SDS011;46248;58.364;25.582;2023-04-15T08:23:58;5.55;;;1.90;;
59766;SDS011;46248;58.364;25.582;2023-04-15T08:27:22;5.45;;;2.08;;
59766;SDS011;46248;58.364;25.582;2023-04-15T08:39:35;3.47;;;2.00;;
59766;SDS011;46248;58.364;25.582;2023-04-15T08:52:53;5.55;;;2.72;;
59766;SDS011;46248;58.364;25.582;2023-04-15T09:01:10;3.67;;;2.25;;
59766;SDS011;46248;58.364;25.582;2023-04-15T09:09:27;3.65;;;2.13;;
59766;SDS011;46248;58.364;25.582;2023-04-15T09:12:49;6.88;;;2.40;;
59766;SDS011;46248;58.364;25.582;2023-04-15T09:16:13;4.40;;;2.50;;
59766;SDS011;46248;58.364;25.582;2023-04-15T09:56:40;7.00;;;2.78;;
59766;SDS011;46248;58.364;25.582;2023-04-15T10:00:02;6.43;;;2.60;;
59766;SDS011;46248;58.364;25.582;2023-04-15T10:07:48;8.65;;;3.05;;
59766;SDS011;46248;58.364;25.582;2023-04-15T10:49:57;10.32;;;3.88;;
59766;SDS011;46248;58.364;25.582;2023-04-15T10:58:14;6.50;;;3.38;;
59766;SDS011;46248;58.364;25.582;2023-04-15T11:15:45;4.93;;;2.92;;
59766;SDS011;46248;58.364;25.582;2023-04-15T11:27:55;10.20;;;4.30;;
59766;SDS011;46248;58.364;25.582;2023-04-15T11:40:54;7.78;;;4.10;;
59766;SDS011;46248;58.364;25.582;2023-04-15T11:44:16;6.68;;;3.58;;
59766;SDS011;46248;58.364;25.582;2023-04-15T12:12:05;9.45;;;3.72;;
59766;SDS011;46248;58.364;25.582;2023-04-15T12:15:27;7.97;;;3.40;;
59766;SDS011;46248;58.364;25.582;2023-04-15T12:18:49;6.60;;;3.22;;
59766;SDS011;46248;58.364;25.582;2023-04-15T12:59:28;8.38;;;3.45;;
59766;SDS011;46248;58.364;25.582;2023-04-15T13:27:01;6.68;;;3.80;;
59766;SDS011;46248;58.364;25.582;2023-04-15T14:13:09;7.55;;;3.42;;
59766;SDS011;46248;58.364;25.582;2023-04-15T14:16:31;6.32;;;3.15;;
59766;SDS011;46248;58.364;25.582;2023-04-15T14:19:53;3.63;;;2.72;;
59766;SDS011;46248;58.364;25.582;2023-04-15T14:23:15;6.13;;;3.15;;
59766;SDS011;46248;58.364;25.582;2023-04-15T14:26:37;6.80;;;3.22;;
59766;SDS011;46248;58.364;25.582;2023-04-15T14:30:00;8.60;;;3.33;;
59766;SDS011;46248;58.364;25.582;2023-04-15T14:33:22;7.55;;;3.42;;
59766;SDS011;46248;58.364;25.582;2023-04-15T14:36:44;7.07;;;3.45;;
59766;SDS011;46248;58.364;25.582;2023-04-15T14:40:06;10.52;;;3.60;;
59766;SDS011;46248;58.364;25.582;2023-04-15T14:43:29;6.55;;;2.63;;
59766;SDS011;46248;58.364;25.582;2023-04-15T14:46:57;8.05;;;3.55;;
59766;SDS011;46248;58.364;25.582;2023-04-15T14:50:21;8.65;;;3.30;;
59766;SDS011;46248;58.364;25.582;2023-04-15T14:53:43;5.32;;;3.20;;
59766;SDS011;46248;58.364;25.582;2023-04-15T14:57:05;5.97;;;3.42;;
59766;SDS011;46248;58.364;25.582;2023-04-15T15:00:29;13.38;;;4.00;;
59766;SDS011;46248;58.364;25.582;2023-04-15T15:03:52;8.60;;;3.70;;
59766;SDS011;46248;58.364;25.582;2023-04-15T15:07:14;7.53;;;4.32;;
59766;SDS011;46248;58.364;25.582;2023-04-15T15:10:36;12.73;;;5.10;;
59766;SDS011;46248;58.364;25.582;2023-04-15T15:14:09;10.43;;;3.28;;
59766;SDS011;46248;58.364;25.582;2023-04-15T15:17:31;10.23;;;3.40;;
59766;SDS011;46248;58.364;25.582;2023-04-15T15:20:55;6.53;;;3.40;;
59766;SDS011;46248;58.364;25.582;2023-04-15T15:24:17;5.43;;;3.40;;
59766;SDS011;46248;58.364;25.582;2023-04-15T15:27:39;7.03;;;3.30;;
59766;SDS011;46248;58.364;25.582;2023-04-15T15:31:01;7.60;;;3.72;;
59766;SDS011;46248;58.364;25.582;2023-04-15T15:34:24;8.10;;;3.63;;
59766;SDS011;46248;58.364;25.582;2023-04-15T15:37:47;9.35;;;3.80;;
59766;SDS011;46248;58.364;25.582;2023-04-15T15:41:09;7.78;;;3.42;;
59766;SDS011;46248;58.364;25.582;2023-04-15T15:44:32;9.30;;;3.55;;
59766;SDS011;46248;58.364;25.582;2023-04-15T15:47:55;8.63;;;3.63;;
59766;SDS011;46248;58.364;25.582;2023-04-15T15:51:19;9.80;;;7.90;;
59766;SDS011;46248;58.364;25.582;2023-04-15T15:54:42;5.90;;;3.38;;
59766;SDS011;46248;58.364;25.582;2023-04-15T15:58:05;4.88;;;2.53;;
59766;SDS011;46248;58.364;25.582;2023-04-15T16:01:26;8.20;;;3.53;;
59766;SDS011;46248;58.364;25.582;2023-04-15T16:04:49;7.72;;;3.95;;
59766;SDS011;46248;58.364;25.582;2023-04-15T16:08:11;9.05;;;3.55;;
59766;SDS011;46248;58.364;25.582;2023-04-15T16:11:37;7.63;;;3.78;;
59766;SDS011;46248;58.364;25.582;2023-04-15T16:15:00;7.32;;;4.47;;
59766;SDS011;46248;58.364;25.582;2023-04-15T16:18:23;7.22;;;3.42;;
59766;SDS011;46248;58.364;25.582;2023-04-15T16:21:45;6.05;;;2.90;;
59766;SDS011;46248;58.364;25.582;2023-04-15T16:25:07;4.03;;;2.40;;
59766;SDS011;46248;58.364;25.582;2023-04-15T16:28:31;5.50;;;3.10;;
59766;SDS011;46248;58.364;25.582;2023-04-15T16:31:54;4.47;;;3.30;;
59766;SDS011;46248;58.364;25.582;2023-04-15T16:35:16;5.43;;;2.78;;
59766;SDS011;46248;58.364;25.582;2023-04-15T16:38:38;5.22;;;2.80;;
59766;SDS011;46248;58.364;25.582;2023-04-15T16:42:00;7.25;;;3.50;;
59766;SDS011;46248;58.364;25.582;2023-04-15T16:45:24;5.57;;;2.70;;
59766;SDS011;46248;58.364;25.582;2023-04-15T16:48:46;3.85;;;2.72;;
59766;SDS011;46248;58.364;25.582;2023-04-15T16:52:08;3.90;;;2.08;;
59766;SDS011;46248;58.364;25.582;2023-04-15T16:55:30;9.02;;;3.63;;
59766;SDS011;46248;58.364;25.582;2023-04-15T16:58:52;5.65;;;2.85;;
59766;SDS011;46248;58.364;25.582;2023-04-15T17:02:15;5.93;;;2.97;;
59766;SDS011;46248;58.364;25.582;2023-04-15T17:05:37;8.65;;;3.92;;
59766;SDS011;46248;58.364;25.582;2023-04-15T17:09:01;8.60;;;3.97;;
59766;SDS011;46248;58.364;25.582;2023-04-15T17:12:24;5.57;;;3.00;;
59766;SDS011;46248;58.364;25.582;2023-04-15T17:15:46;10.02;;;3.42;;
59766;SDS011;46248;58.364;25.582;2023-04-15T17:19:09;6.25;;;3.30;;
59766;SDS011;46248;58.364;25.582;2023-04-15T17:22:32;8.10;;;3.47;;
59766;SDS011;46248;58.364;25.582;2023-04-15T17:25:55;4.82;;;2.60;;
59766;SDS011;46248;58.364;25.582;2023-04-15T17:29:17;6.35;;;2.08;;
59766;SDS011;46248;58.364;25.582;2023-04-15T17:32:39;4.32;;;2.97;;
59766;SDS011;46248;58.364;25.582;2023-04-15T17:36:04;6.00;;;3.30;;
59766;SDS011;46248;58.364;25.582;2023-04-15T17:39:26;4.82;;;3.03;;
59766;SDS011;46248;58.364;25.582;2023-04-15T17:42:48;8.60;;;2.90;;
59766;SDS011;46248;58.364;25.582;2023-04-15T17:46:10;6.72;;;2.92;;
59766;SDS011;46248;58.364;25.582;2023-04-15T17:49:32;6.72;;;3.88;;
59766;SDS011;46248;58.364;25.582;2023-04-15T17:52:58;9.73;;;4.15;;
59766;SDS011;46248;58.364;25.582;2023-04-15T17:56:21;8.68;;;4.03;;
59766;SDS011;46248;58.364;25.582;2023-04-15T17:59:43;8.30;;;3.90;;
59766;SDS011;46248;58.364;25.582;2023-04-15T18:03:07;6.22;;;3.40;;
59766;SDS011;46248;58.364;25.582;2023-04-15T18:06:29;5.45;;;3.30;;
59766;SDS011;46248;58.364;25.582;2023-04-15T18:09:53;6.80;;;3.33;;
59766;SDS011;46248;58.364;25.582;2023-04-15T18:13:16;6.15;;;3.47;;
59766;SDS011;46248;58.364;25.582;2023-04-15T18:16:37;7.68;;;4.20;;
59766;SDS011;46248;58.364;25.582;2023-04-15T18:20:02;8.70;;;4.25;;
59766;SDS011;46248;58.364;25.582;2023-04-15T18:23:25;5.65;;;3.20;;
59766;SDS011;46248;58.364;25.582;2023-04-15T18:26:49;8.40;;;3.92;;
59766;SDS011;46248;58.364;25.582;2023-04-15T18:30:12;4.85;;;2.55;;
59766;SDS011;46248;58.364;25.582;2023-04-15T18:33:34;7.05;;;3.03;;
59766;SDS011;46248;58.364;25.582;2023-04-15T18:36:57;12.32;;;3.03;;
59766;SDS011;46248;58.364;25.582;2023-04-15T18:40:18;5.47;;;2.67;;
59766;SDS011;46248;58.364;25.582;2023-04-15T18:43:42;6.32;;;3.70;;
59766;SDS011;46248;58.364;25.582;2023-04-15T18:47:04;6.93;;;2.72;;
59766;SDS011;46248;58.364;25.582;2023-04-15T18:50:26;6.95;;;2.55;;
59766;SDS011;46248;58.364;25.582;2023-04-15T18:53:48;6.00;;;3.00;;
59766;SDS011;46248;58.364;25.582;2023-04-15T18:57:09;7.10;;;3.60;;
59766;SDS011;46248;58.364;25.582;2023-04-15T19:00:36;4.22;;;2.33;;
59766;SDS011;46248;58.364;25.582;2023-04-15T19:04:00;9.35;;;3.35;;
59766;SDS011;46248;58.364;25.582;2023-04-15T19:07:23;5.85;;;2.88;;
59766;SDS011;46248;58.364;25.582;2023-04-15T19:10:45;4.60;;;2.30;;
59766;SDS011;46248;58.364;25.582;2023-04-15T19:14:08;5.95;;;2.80;;
59766;SDS011;46248;58.364;25.582;2023-04-15T19:17:31;9.63;;;3.72;;
59766;SDS011;46248;58.364;25.582;2023-04-15T19:20:53;8.93;;;4.00;;
59766;SDS011;46248;58.364;25.582;2023-04-15T19:24:16;6.78;;;3.20;;
59766;SDS011;46248;58.364;25.582;2023-04-15T19:27:40;8.57;;;3.38;;
59766;SDS011;46248;58.364;25.582;2023-04-15T19:31:03;6.07;;;3.13;;
59766;SDS011;46248;58.364;25.582;2023-04-15T19:34:26;5.45;;;2.83;;
59766;SDS011;46248;58.364;25.582;2023-04-15T19:37:48;5.50;;;2.60;;
59766;SDS011;46248;58.364;25.582;2023-04-15T19:41:10;7.53;;;3.00;;
59766;SDS011;46248;58.364;25.582;2023-04-15T19:44:32;8.15;;;2.40;;
59766;SDS011;46248;58.364;25.582;2023-04-15T19:47:54;6.13;;;2.55;;
59766;SDS011;46248;58.364;25.582;2023-04-15T19:51:17;5.82;;;2.20;;
59766;SDS011;46248;58.364;25.582;2023-04-15T19:54:39;7.65;;;2.88;;
59766;SDS011;46248;58.364;25.582;2023-04-15T19:58:01;5.95;;;2.63;;
59766;SDS011;46248;58.364;25.582;2023-04-15T20:01:23;5.38;;;2.70;;
59766;SDS011;46248;58.364;25.582;2023-04-15T20:04:46;6.18;;;2.58;;
59766;SDS011;46248;58.364;25.582;2023-04-15T20:08:10;4.20;;;2.38;;
59766;SDS011;46248;58.364;25.582;2023-04-15T20:11:32;4.35;;;2.30;;
59766;SDS011;46248;58.364;25.582;2023-04-15T20:15:14;5.85;;;2.75;;
59766;SDS011;46248;58.364;25.582;2023-04-15T20:18:36;4.80;;;2.67;;
59766;SDS011;46248;58.364;25.582;2023-04-15T20:21:58;5.13;;;2.38;;
59766;SDS011;46248;58.364;25.582;2023-04-15T20:25:22;7.40;;;2.28;;
59766;SDS011;46248;58.364;25.582;2023-04-15T20:28:44;7.55;;;2.55;;
59766;SDS011;46248;58.364;25.582;2023-04-15T20:32:07;4.95;;;2.33;;
59766;SDS011;46248;58.364;25.582;2023-04-15T20:35:30;6.03;;;2.92;;
59766;SDS011;46248;58.364;25.582;2023-04-15T20:38:52;4.50;;;1.80;;
59766;SDS011;46248;58.364;25.582;2023-04-15T20:42:16;3.80;;;2.38;;
59766;SDS011;46248;58.364;25.582;2023-04-15T20:45:38;7.53;;;2.95;;
59766;SDS011;46248;58.364;25.582;2023-04-15T20:49:00;4.85;;;2.45;;
59766;SDS011;46248;58.364;25.582;2023-04-15T20:52:22;7.72;;;3.05;;
59766;SDS011;46248;58.364;25.582;2023-04-15T20:55:45;7.60;;;2.45;;
59766;SDS011;46248;58.364;25.582;2023-04-15T20:59:09;5.55;;;2.75;;
59766;SDS011;46248;58.364;25.582;2023-04-15T21:02:31;7.75;;;3.33;;
59766;SDS011;46248;58.364;25.582;2023-04-15T21:05:52;8.05;;;2.80;;
59766;SDS011;46248;58.364;25.582;2023-04-15T21:09:14;6.60;;;2.75;;
59766;SDS011;46248;58.364;25.582;2023-04-15T21:12:36;6.07;;;2.97;;
59766;SDS011;46248;58.364;25.582;2023-04-15T21:16:01;7.95;;;3.40;;
59766;SDS011;46248;58.364;25.582;2023-04-15T21:19:23;6.65;;;2.90;;
59766;SDS011;46248;58.364;25.582;2023-04-15T21:22:45;7.40;;;2.78;;
59766;SDS011;46248;58.364;25.582;2023-04-15T21:26:07;7.03;;;3.17;;
59766;SDS011;46248;58.364;25.582;2023-04-15T21:29:29;5.47;;;2.78;;
59766;SDS011;46248;58.364;25.582;2023-04-15T21:32:52;4.75;;;2.97;;
59766;SDS011;46248;58.364;25.582;2023-04-15T21:36:14;5.13;;;3.15;;
59766;SDS011;46248;58.364;25.582;2023-04-15T21:39:36;3.17;;;2.22;;
59766;SDS011;46248;58.364;25.582;2023-04-15T21:42:58;6.63;;;2.38;;
59766;SDS011;46248;58.364;25.582;2023-04-15T21:46:20;3.92;;;2.38;;
59766;SDS011;46248;58.364;25.582;2023-04-15T21:49:47;3.95;;;2.13;;
59766;SDS011;46248;58.364;25.582;2023-04-15T21:53:09;4.90;;;2.50;;
59766;SDS011;46248;58.364;25.582;2023-04-15T21:56:31;5.78;;;2.35;;
59766;SDS011;46248;58.364;25.582;2023-04-15T21:59:53;2.88;;;2.10;;
59766;SDS011;46248;58.364;25.582;2023-04-15T22:03:15;3.78;;;2.22;;
59766;SDS011;46248;58.364;25.582;2023-04-15T22:06:39;8.13;;;4.13;;
59766;SDS011;46248;58.364;25.582;2023-04-15T22:10:00;5.60;;;2.78;;
59766;SDS011;46248;58.364;25.582;2023-04-15T22:13:23;7.97;;;3.08;;
59766;SDS011;46248;58.364;25.582;2023-04-15T22:16:45;3.75;;;1.98;;
59766;SDS011;46248;58.364;25.582;2023-04-15T22:20:07;6.35;;;2.70;;
59766;SDS011;46248;58.364;25.582;2023-04-15T22:23:31;5.28;;;2.65;;
59766;SDS011;46248;58.364;25.582;2023-04-15T22:26:53;6.40;;;2.97;;
59766;SDS011;46248;58.364;25.582;2023-04-15T22:30:15;6.00;;;2.60;;
59766;SDS011;46248;58.364;25.582;2023-04-15T22:33:36;4.50;;;2.25;;
59766;SDS011;46248;58.364;25.582;2023-04-15T22:36:58;8.23;;;3.65;;
59766;SDS011;46248;58.364;25.582;2023-04-15T22:40:22;6.80;;;2.30;;
59766;SDS011;46248;58.364;25.582;2023-04-15T22:43:44;3.40;;;2.80;;
59766;SDS011;46248;58.364;25.582;2023-04-15T22:47:06;2.75;;;2.03;;
59766;SDS011;46248;58.364;25.582;2023-04-15T22:50:28;4.28;;;2.20;;
59766;SDS011;46248;58.364;25.582;2023-04-15T22:53:50;6.78;;;3.00;;
59766;SDS011;46248;58.364;25.582;2023-04-15T22:57:13;6.60;;;2.90;;
59766;SDS011;46248;58.364;25.582;2023-04-15T23:00:35;5.25;;;2.35;;
59766;SDS011;46248;58.364;25.582;2023-04-15T23:03:58;3.15;;;2.08;;
59766;SDS011;46248;58.364;25.582;2023-04-15T23:07:40;5.82;;;2.00;;
59766;SDS011;46248;58.364;25.582;2023-04-15T23:11:01;5.72;;;2.42;;
59766;SDS011;46248;58.364;25.582;2023-04-15T23:14:25;5.32;;;2.20;;
59766;SDS011;46248;58.364;25.582;2023-04-15T23:17:47;4.15;;;2.17;;
59766;SDS011;46248;58.364;25.582;2023-04-15T23:21:10;4.75;;;2.65;;
59766;SDS011;46248;58.364;25.582;2023-04-15T23:24:31;4.10;;;2.05;;
59766;SDS011;46248;58.364;25.582;2023-04-15T23:27:53;4.45;;;2.17;;
59766;SDS011;46248;58.364;25.582;2023-04-15T23:31:17;4.32;;;1.83;;
59766;SDS011;46248;58.364;25.582;2023-04-15T23:34:39;3.25;;;2.33;;
59766;SDS011;46248;58.364;25.582;2023-04-15T23:38:01;3.63;;;2.90;;
59766;SDS011;46248;58.364;25.582;2023-04-15T23:41:23;3.50;;;2.13;;
59766;SDS011;46248;58.364;25.582;2023-04-15T23:44:45;7.47;;;2.88;;
59766;SDS011;46248;58.364;25.582;2023-04-15T23:48:08;3.75;;;2.13;;
59766;SDS011;46248;58.364;25.582;2023-04-15T23:51:30;3.88;;;1.70;;
59766;SDS011;46248;58.364;25.582;2023-04-15T23:54:52;2.85;;;1.70;;
59766;SDS011;46248;58.364;25.582;2023-04-15T23:58:13;4.28;;;2.10;;
